createdAt,value
2018-05-15T00:00:22.798Z,8.83
2018-05-15T00:02:48.917Z,8.13
2018-05-15T00:05:15.017Z,9.27
2018-05-15T00:07:41.114Z,9.00
2018-05-15T00:10:07.983Z,8.77
2018-05-15T00:12:34.796Z,9.77
2018-05-15T00:15:00.871Z,9.70
2018-05-15T00:17:26.936Z,9.90
2018-05-15T00:19:53.002Z,8.90
2018-05-15T00:22:19.047Z,9.90
2018-05-15T00:24:45.132Z,9.43
2018-05-15T00:27:11.256Z,10.40
2018-05-15T00:29:37.342Z,10.50
2018-05-15T00:32:03.384Z,10.90
2018-05-15T00:34:29.471Z,10.30
2018-05-15T00:36:55.555Z,10.30
2018-05-15T00:39:21.617Z,9.83
2018-05-15T00:41:47.676Z,9.57
2018-05-15T00:44:14.653Z,10.87
2018-05-15T00:46:40.875Z,10.63
2018-05-15T00:49:07.693Z,10.20
2018-05-15T00:51:33.767Z,10.73
2018-05-15T00:53:59.867Z,11.63
2018-05-15T00:56:25.953Z,9.50
2018-05-15T00:58:52.807Z,10.87
2018-05-15T01:01:19.644Z,10.67
2018-05-15T01:03:45.782Z,11.40
2018-05-15T01:06:11.899Z,11.07
2018-05-15T01:08:37.994Z,12.10
2018-05-15T01:11:04.097Z,11.27
2018-05-15T01:13:30.179Z,11.10
2018-05-15T01:15:56.274Z,12.57
2018-05-15T01:18:22.351Z,11.93
2018-05-15T01:20:48.422Z,12.10
2018-05-15T01:23:14.551Z,11.80
2018-05-15T01:25:40.690Z,11.75
2018-05-15T01:28:06.730Z,12.40
2018-05-15T01:30:32.825Z,11.52
2018-05-15T01:32:59.667Z,12.10
2018-05-15T01:35:25.740Z,11.40
2018-05-15T01:37:51.847Z,12.20
2018-05-15T01:40:18.824Z,13.15
2018-05-15T01:42:44.864Z,11.65
2018-05-15T01:45:11.226Z,12.00
2018-05-15T01:47:37.442Z,11.52
2018-05-15T01:50:03.545Z,12.40
2018-05-15T01:52:29.697Z,12.23
2018-05-15T01:54:55.748Z,13.13
2018-05-15T01:57:23.133Z,12.60
2018-05-15T01:59:49.227Z,12.40
2018-05-15T02:02:15.330Z,13.77
2018-05-15T02:04:41.434Z,12.48
2018-05-15T02:07:07.556Z,12.35
2018-05-15T02:09:33.620Z,12.90
2018-05-15T02:11:59.666Z,13.18
2018-05-15T02:14:25.785Z,13.15
2018-05-15T02:16:52.605Z,12.80
2018-05-15T02:19:18.647Z,12.68
2018-05-15T02:21:44.768Z,13.50
2018-05-15T02:24:10.880Z,13.93
2018-05-15T02:26:36.928Z,13.43
2018-05-15T02:29:03.253Z,13.80
2018-05-15T02:31:29.457Z,14.30
2018-05-15T02:33:56.280Z,14.43
2018-05-15T02:36:22.351Z,14.50
2018-05-15T02:38:48.420Z,14.35
2018-05-15T02:41:14.507Z,15.10
2018-05-15T02:43:40.563Z,15.15
2018-05-15T02:46:06.954Z,14.00
2018-05-15T02:48:33.025Z,14.70
2018-05-15T02:50:59.110Z,14.70
2018-05-15T02:53:25.187Z,14.85
2018-05-15T02:55:51.618Z,14.30
2018-05-15T02:58:17.727Z,14.50
2018-05-15T03:00:43.888Z,14.80
2018-05-15T03:03:11.078Z,14.98
2018-05-15T03:05:37.169Z,15.20
2018-05-15T03:08:04.012Z,15.00
2018-05-15T03:10:30.854Z,15.63
2018-05-15T03:12:56.912Z,15.65
2018-05-15T03:15:23.002Z,16.00
2018-05-15T03:17:49.106Z,16.30
2018-05-15T03:20:15.217Z,16.08
2018-05-15T03:22:42.100Z,15.83
2018-05-15T03:25:08.180Z,16.00
2018-05-15T03:27:34.244Z,15.93
2018-05-15T03:30:00.377Z,16.75
2018-05-15T03:32:26.471Z,16.60
2018-05-15T03:34:52.580Z,16.20
2018-05-15T03:37:18.646Z,17.48
2018-05-15T03:39:44.781Z,17.45
2018-05-15T03:42:10.901Z,17.33
2018-05-15T03:44:37.736Z,16.55
2018-05-15T03:47:03.868Z,16.62
2018-05-15T03:49:29.994Z,16.98
2018-05-15T03:51:56.065Z,16.73
2018-05-15T03:54:22.859Z,16.95
2018-05-15T03:56:49.033Z,17.23
2018-05-15T03:59:15.190Z,17.70
2018-05-15T04:01:53.627Z,15.93
2018-05-15T04:04:31.841Z,17.35
2018-05-15T04:07:10.371Z,16.90
2018-05-15T04:09:36.461Z,17.67
2018-05-15T04:12:02.563Z,16.42
2018-05-15T04:14:30.227Z,16.58
2018-05-15T04:16:56.278Z,17.00
2018-05-15T04:19:23.071Z,17.15
2018-05-15T04:21:49.193Z,16.80
2018-05-15T04:24:15.287Z,17.08
2018-05-15T04:26:41.442Z,17.48
2018-05-15T04:29:08.231Z,17.70
2018-05-15T04:31:34.277Z,15.63
2018-05-15T04:34:00.356Z,16.77
2018-05-15T04:36:26.433Z,16.87
2018-05-15T04:38:52.514Z,17.42
2018-05-15T04:41:18.553Z,17.25
2018-05-15T04:43:44.712Z,17.77
2018-05-15T04:46:10.701Z,16.55
2018-05-15T04:48:36.874Z,17.98
2018-05-15T04:51:02.944Z,17.40
2018-05-15T04:53:29.886Z,18.60
2018-05-15T04:55:56.804Z,18.37
2018-05-15T04:58:22.891Z,17.85
2018-05-15T05:00:49.878Z,18.50
2018-05-15T05:03:15.987Z,18.20
2018-05-15T05:05:42.362Z,18.62
2018-05-15T05:08:08.450Z,17.83
2018-05-15T05:10:34.584Z,16.43
2018-05-15T05:13:00.703Z,17.17
2018-05-15T05:15:33.053Z,18.00
2018-05-15T05:17:59.149Z,17.37
2018-05-15T05:20:25.225Z,17.40
2018-05-15T05:22:51.277Z,16.10
2018-05-15T05:25:17.415Z,17.77
2018-05-15T05:27:43.591Z,16.57
2018-05-15T05:30:09.668Z,18.40
2018-05-15T05:32:36.453Z,16.57
2018-05-15T05:35:02.529Z,16.87
2018-05-15T05:37:28.668Z,16.87
2018-05-15T05:39:54.733Z,16.63
2018-05-15T05:42:21.570Z,17.70
2018-05-15T05:44:47.661Z,16.27
2018-05-15T05:47:13.714Z,16.80
2018-05-15T05:49:39.841Z,15.97
2018-05-15T05:52:05.957Z,16.20
2018-05-15T05:54:32.758Z,16.67
2018-05-15T05:56:58.801Z,15.93
2018-05-15T05:59:24.919Z,16.50
2018-05-15T06:01:51.346Z,16.75
2018-05-15T06:04:17.426Z,16.85
2018-05-15T06:06:43.532Z,16.45
2018-05-15T06:09:09.684Z,16.85
2018-05-15T06:11:35.793Z,16.27
2018-05-15T06:14:02.255Z,16.33
2018-05-15T06:16:28.298Z,15.43
2018-05-15T06:18:54.374Z,15.85
2018-05-15T06:21:20.445Z,15.63
2018-05-15T06:23:46.535Z,15.20
2018-05-15T06:26:13.480Z,14.90
2018-05-15T06:28:39.553Z,15.35
2018-05-15T06:31:05.612Z,16.08
2018-05-15T06:33:32.482Z,15.18
2018-05-15T06:35:58.581Z,15.75
2018-05-15T06:38:24.738Z,14.50
2018-05-15T06:40:50.836Z,14.87
2018-05-15T06:43:16.960Z,14.20
2018-05-15T06:45:43.063Z,13.70
2018-05-15T06:48:09.904Z,15.10
2018-05-15T06:50:35.984Z,14.45
2018-05-15T06:53:02.180Z,15.00
2018-05-15T06:55:28.277Z,13.13
2018-05-15T06:57:54.369Z,14.13
2018-05-15T07:00:21.305Z,14.25
2018-05-15T07:02:47.490Z,14.38
2018-05-15T07:05:13.719Z,15.30
2018-05-15T07:07:39.828Z,14.80
2018-05-15T07:10:05.924Z,13.77
2018-05-15T07:12:32.033Z,14.43
2018-05-15T07:14:58.105Z,14.52
2018-05-15T07:17:24.197Z,13.13
2018-05-15T07:19:51.001Z,15.37
2018-05-15T07:22:17.121Z,13.97
2018-05-15T07:24:43.275Z,12.93
2018-05-15T07:27:09.591Z,12.67
2018-05-15T07:29:35.649Z,12.33
2018-05-15T07:32:01.732Z,11.43
2018-05-15T07:34:27.773Z,11.13
2018-05-15T07:36:53.842Z,10.93
2018-05-15T07:39:19.910Z,10.00
2018-05-15T07:41:46.005Z,11.00
2018-05-15T07:44:12.174Z,10.67
2018-05-15T07:46:38.212Z,10.37
2018-05-15T07:49:04.319Z,10.30
2018-05-15T09:41:07.578Z,4.63
2018-05-15T09:46:31.296Z,4.63
2018-05-15T09:48:57.430Z,4.53
2018-05-15T09:51:23.466Z,4.53
2018-05-15T09:53:49.504Z,5.13
2018-05-15T09:56:16.343Z,4.97
2018-05-15T09:58:43.343Z,5.20
2018-05-15T10:01:09.399Z,4.50
2018-05-15T10:03:35.478Z,4.60
2018-05-15T10:06:02.285Z,5.40
2018-05-15T10:08:28.368Z,4.27
2018-05-15T10:10:55.187Z,4.60
2018-05-15T10:13:21.269Z,4.33
2018-05-15T10:15:48.100Z,5.10
2018-05-15T10:18:14.180Z,4.80
2018-05-15T10:20:40.266Z,3.97
2018-05-15T10:23:07.109Z,4.40
2018-05-15T10:25:33.156Z,5.70
2018-05-15T10:27:59.227Z,4.70
2018-05-15T10:30:26.102Z,5.70
2018-05-15T10:32:52.197Z,4.90
2018-05-15T10:35:18.252Z,5.10
2018-05-15T10:59:39.924Z,4.03
2018-05-15T11:02:05.964Z,4.37
2018-05-15T11:04:32.031Z,5.47
2018-05-15T11:06:58.058Z,4.27
2018-05-15T11:09:25.245Z,3.93
2018-05-15T11:11:53.908Z,4.27
2018-05-15T11:14:20.083Z,4.07
2018-05-15T11:16:46.250Z,3.93
2018-05-15T11:19:24.609Z,4.37
2018-05-15T11:22:03.205Z,3.92
2018-05-15T11:27:26.982Z,3.33
2018-05-15T11:32:19.790Z,3.60
2018-05-15T11:34:46.629Z,3.92
2018-05-15T11:37:13.762Z,4.00
2018-05-15T11:39:39.804Z,6.00
2018-05-15T11:42:05.875Z,4.62
2018-05-15T11:44:32.712Z,3.40
2018-05-15T11:46:58.787Z,3.50
2018-05-15T11:49:25.608Z,3.72
2018-05-15T11:51:51.964Z,3.28
2018-05-15T11:54:17.326Z,3.72
2018-05-15T11:56:43.399Z,3.90
2018-05-15T11:59:09.467Z,3.58
2018-05-15T12:01:36.295Z,4.57
2018-05-15T12:04:02.483Z,3.67
2018-05-15T12:06:28.480Z,3.30
2018-05-15T12:08:54.542Z,3.40
2018-05-15T12:11:21.326Z,3.25
2018-05-15T12:13:47.362Z,3.90
2018-05-15T12:16:13.463Z,3.50
2018-05-15T12:18:40.284Z,3.15
2018-05-15T12:21:06.325Z,3.55
2018-05-15T12:23:32.918Z,3.15
2018-05-15T12:25:58.980Z,2.80
2018-05-15T12:28:25.034Z,3.05
2018-05-15T12:30:51.146Z,2.70
2018-05-15T12:33:17.229Z,3.35
2018-05-15T12:35:43.318Z,3.12
2018-05-15T12:38:09.430Z,3.53
2018-05-15T12:40:35.505Z,3.10
2018-05-15T12:43:01.526Z,3.90
2018-05-15T12:45:28.386Z,3.58
2018-05-15T12:47:54.520Z,2.97
2018-05-15T12:50:20.518Z,3.05
2018-05-15T12:52:46.602Z,3.53
2018-05-15T12:55:12.819Z,3.70
2018-05-15T12:57:39.613Z,4.70
2018-05-15T13:00:05.738Z,2.78
2018-05-15T13:02:31.765Z,2.87
2018-05-15T13:04:58.558Z,2.83
2018-05-15T13:07:24.597Z,3.10
2018-05-15T13:09:50.731Z,2.78
2018-05-15T13:12:16.793Z,2.53
2018-05-15T13:14:43.340Z,2.87
2018-05-15T13:17:09.438Z,3.28
2018-05-15T13:19:35.567Z,2.50
2018-05-15T13:22:01.621Z,2.65
2018-05-15T13:24:27.773Z,2.58
2018-05-15T13:26:54.567Z,2.58
2018-05-15T13:29:20.652Z,2.80
2018-05-15T13:31:46.890Z,2.45
2018-05-15T13:34:12.969Z,2.30
2018-05-15T13:36:39.036Z,2.53
2018-05-15T13:39:05.865Z,2.70
2018-05-15T13:41:31.929Z,2.85
2018-05-15T13:43:58.733Z,2.83
2018-05-15T13:46:24.934Z,2.05
2018-05-15T13:48:51.798Z,2.03
2018-05-15T13:51:18.605Z,2.10
2018-05-15T13:53:45.044Z,2.12
2018-05-15T13:56:11.155Z,2.20
2018-05-15T13:58:37.182Z,2.03
2018-05-15T14:01:03.266Z,2.45
2018-05-15T14:03:29.321Z,2.70
2018-05-15T14:05:55.374Z,2.95
2018-05-15T14:08:22.250Z,2.50
2018-05-15T14:10:48.408Z,2.30
2018-05-15T14:13:15.430Z,2.78
2018-05-15T14:15:41.489Z,2.33
2018-05-15T14:18:07.554Z,2.30
2018-05-15T14:20:33.612Z,2.95
2018-05-15T14:22:59.778Z,2.58
2018-05-15T14:25:26.577Z,2.80
2018-05-15T14:27:52.634Z,2.78
2018-05-15T14:30:18.754Z,2.20
2018-05-15T14:32:44.853Z,2.42
2018-05-15T14:35:10.947Z,2.20
2018-05-15T14:37:36.985Z,2.47
2018-05-15T14:40:03.148Z,2.50
2018-05-15T14:42:41.467Z,2.22
2018-05-15T14:45:07.542Z,2.40
2018-05-15T14:47:33.609Z,2.90
2018-05-15T14:49:59.709Z,2.20
2018-05-15T14:52:26.521Z,2.40
2018-05-15T14:54:52.567Z,2.28
2018-05-15T14:57:18.632Z,2.10
2018-05-15T14:59:44.722Z,2.55
2018-05-15T15:02:10.782Z,2.40
2018-05-15T15:04:36.838Z,2.33
2018-05-15T15:07:02.948Z,2.55
2018-05-15T15:09:29.006Z,2.58
2018-05-15T15:11:55.070Z,2.30
2018-05-15T15:14:21.104Z,2.28
2018-05-15T15:16:47.947Z,2.50
2018-05-15T15:19:14.013Z,2.50
2018-05-15T15:21:40.068Z,2.90
2018-05-15T15:24:06.115Z,2.55
2018-05-15T15:26:32.171Z,2.47
2018-05-15T15:28:58.524Z,2.42
2018-05-15T15:31:24.709Z,2.40
2018-05-15T15:33:50.786Z,2.12
2018-05-15T15:36:17.010Z,2.35
2018-05-15T15:38:43.209Z,2.55
2018-05-15T15:41:10.117Z,2.53
2018-05-15T15:43:36.592Z,2.17
2018-05-15T15:46:03.342Z,2.50
2018-05-15T15:48:29.464Z,2.80
2018-05-15T15:50:55.556Z,2.50
2018-05-15T15:53:22.491Z,2.30
2018-05-15T15:55:48.626Z,2.33
2018-05-15T15:58:14.700Z,2.92
2018-05-15T16:00:40.751Z,3.10
2018-05-15T16:03:06.857Z,3.28
2018-05-15T16:05:33.701Z,3.30
2018-05-15T16:07:59.765Z,3.70
2018-05-15T16:10:25.852Z,3.35
2018-05-15T16:12:52.112Z,3.97
2018-05-15T16:15:18.147Z,3.78
2018-05-15T16:17:44.299Z,3.80
2018-05-15T16:22:36.377Z,4.37
2018-05-15T16:29:56.224Z,7.43
2018-05-15T16:32:23.032Z,4.70
2018-05-15T16:34:49.849Z,5.10
2018-05-15T16:37:16.200Z,5.00
2018-05-15T16:39:42.245Z,4.67
2018-05-15T16:42:08.288Z,4.80
2018-05-15T16:44:34.436Z,4.20
2018-05-15T16:47:00.474Z,6.07
2018-05-15T16:49:26.567Z,4.90
2018-05-15T16:51:53.615Z,4.80
2018-05-15T16:54:19.675Z,5.00
2018-05-15T16:56:45.801Z,5.00
2018-05-15T16:59:12.614Z,5.03
2018-05-15T17:01:38.688Z,4.10
2018-05-15T17:04:04.775Z,5.37
2018-05-15T17:06:30.890Z,5.00
2018-05-15T17:08:57.738Z,4.73
2018-05-15T17:11:24.644Z,4.30
2018-05-15T17:13:50.714Z,4.70
2018-05-15T17:16:16.774Z,4.70
2018-05-15T17:18:43.665Z,6.10
2018-05-15T17:21:09.807Z,6.23
2018-05-15T17:23:35.825Z,4.90
2018-05-15T17:26:01.866Z,5.40
2018-05-15T17:28:27.958Z,5.10
2018-05-15T17:30:54.005Z,5.60
2018-05-15T17:33:20.058Z,5.07
2018-05-15T17:35:47.227Z,6.40
2018-05-15T17:38:13.301Z,6.27
2018-05-15T17:40:39.360Z,6.13
2018-05-15T17:43:05.446Z,5.43
2018-05-15T17:45:31.535Z,5.40
2018-05-15T17:47:57.607Z,6.03
2018-05-15T17:50:24.389Z,6.03
2018-05-15T17:52:50.602Z,5.47
2018-05-15T17:55:16.615Z,6.03
2018-05-15T17:57:42.663Z,5.13
2018-05-15T18:00:08.738Z,5.10
2018-05-15T18:02:34.894Z,5.50
2018-05-15T18:05:01.139Z,6.00
2018-05-15T18:07:27.200Z,5.43
2018-05-15T18:09:53.706Z,6.37
2018-05-15T18:12:19.753Z,6.00
2018-05-15T18:14:45.829Z,5.73
2018-05-15T18:17:12.215Z,5.83
2018-05-15T18:19:38.242Z,5.93
2018-05-15T18:22:04.280Z,5.97
2018-05-15T18:24:30.913Z,6.00
2018-05-15T18:26:57.688Z,5.67
2018-05-15T18:29:24.726Z,5.40
2018-05-15T18:31:50.724Z,5.77
2018-05-15T18:34:16.820Z,5.67
2018-05-15T18:36:43.175Z,5.87
2018-05-15T18:39:09.295Z,5.63
2018-05-15T18:41:36.080Z,5.87
2018-05-15T18:44:02.145Z,4.90
2018-05-15T18:46:28.226Z,5.10
2018-05-15T18:48:55.013Z,5.33
2018-05-15T18:51:21.078Z,6.07
2018-05-15T18:53:47.202Z,6.00
2018-05-15T18:56:13.381Z,4.90
2018-05-15T18:58:40.173Z,5.20
2018-05-15T19:01:06.280Z,5.80
2018-05-15T19:03:32.368Z,5.03
2018-05-15T19:05:58.407Z,6.10
2018-05-15T19:08:24.460Z,5.80
2018-05-15T19:10:50.543Z,5.20
2018-05-15T19:13:16.608Z,6.43
2018-05-15T19:15:42.689Z,4.80
2018-05-15T19:18:08.821Z,5.10
2018-05-15T19:20:34.871Z,5.37
2018-05-15T19:23:00.938Z,5.47
2018-05-15T19:25:27.751Z,5.37
2018-05-15T19:27:53.803Z,5.67
2018-05-15T19:30:19.976Z,5.10
2018-05-15T19:32:46.047Z,5.60
2018-05-15T19:35:18.096Z,5.20
2018-05-15T19:37:44.170Z,5.73
2018-05-15T19:40:12.158Z,5.37
2018-05-15T19:42:38.183Z,4.70
2018-05-15T19:45:04.241Z,5.43
2018-05-15T19:47:30.318Z,5.17
2018-05-15T19:49:56.550Z,5.90
2018-05-15T19:52:22.614Z,6.47
2018-05-15T19:54:48.637Z,5.60
2018-05-15T19:57:14.722Z,5.47
2018-05-15T19:59:40.775Z,5.57
2018-05-15T20:02:06.784Z,4.97
2018-05-15T20:04:32.843Z,5.12
2018-05-15T20:06:58.878Z,5.78
2018-05-15T20:09:24.934Z,5.07
2018-05-15T20:11:51.100Z,5.77
2018-05-15T20:14:17.213Z,5.53
2018-05-15T20:16:43.662Z,6.20
2018-05-15T20:19:09.741Z,5.33
2018-05-15T20:21:35.831Z,5.63
2018-05-15T20:24:01.895Z,5.63
2018-05-15T20:26:27.934Z,6.37
2018-05-15T20:28:53.971Z,5.43
2018-05-15T20:31:20.765Z,6.27
2018-05-15T20:33:46.809Z,6.03
2018-05-15T20:36:13.032Z,6.00
2018-05-15T20:38:39.138Z,6.03
2018-05-15T20:41:05.190Z,5.43
2018-05-15T20:43:32.721Z,5.47
2018-05-15T20:45:58.760Z,5.70
2018-05-15T20:48:25.248Z,5.80
2018-05-15T20:50:51.298Z,5.50
2018-05-15T20:53:17.376Z,6.07
2018-05-15T20:55:45.112Z,5.60
2018-05-15T20:58:11.925Z,5.33
2018-05-15T21:00:38.055Z,5.53
2018-05-15T21:03:04.097Z,5.73
2018-05-15T21:05:30.274Z,5.90
2018-05-15T21:07:56.302Z,5.90
2018-05-15T21:10:22.325Z,5.87
2018-05-15T21:12:48.363Z,5.73
2018-05-15T21:15:15.184Z,6.50
2018-05-15T21:17:41.276Z,5.73
2018-05-15T21:20:07.339Z,5.67
2018-05-15T21:22:33.389Z,5.20
2018-05-15T21:25:01.248Z,6.07
2018-05-15T21:27:27.309Z,6.57
2018-05-15T21:29:53.352Z,6.37
2018-05-15T21:32:19.398Z,6.37
2018-05-15T21:34:45.470Z,5.70
2018-05-15T21:37:12.481Z,5.30
2018-05-15T21:39:38.555Z,5.50
2018-05-15T21:42:05.528Z,5.20
2018-05-15T21:44:31.638Z,5.50
2018-05-15T21:46:58.419Z,5.53
2018-05-15T21:49:24.461Z,5.97
2018-05-15T21:51:50.551Z,5.87
2018-05-15T21:54:16.594Z,5.30
2018-05-15T21:56:42.628Z,5.60
2018-05-15T21:59:08.704Z,5.03
2018-05-15T22:01:34.753Z,6.00
2018-05-15T22:04:00.792Z,5.87
2018-05-15T22:06:26.887Z,6.57
2018-05-15T22:08:52.928Z,5.50
2018-05-15T22:11:18.839Z,6.13
2018-05-15T22:13:57.190Z,6.10
2018-05-15T22:16:35.601Z,5.90
2018-05-15T22:19:13.929Z,5.80
2018-05-15T22:21:52.161Z,7.50
2018-05-15T22:24:18.220Z,6.10
2018-05-15T22:26:45.045Z,5.73
2018-05-15T22:29:11.114Z,6.30
2018-05-15T22:31:37.954Z,6.20
2018-05-15T22:34:04.429Z,5.73
2018-05-15T22:36:30.494Z,6.00
2018-05-15T22:38:56.520Z,6.80
2018-05-15T22:41:22.553Z,6.73
2018-05-15T22:43:48.570Z,6.07
2018-05-15T22:46:14.618Z,7.20
2018-05-15T22:48:40.688Z,7.03
2018-05-15T22:51:06.725Z,7.73
2018-05-15T22:53:32.766Z,7.83
2018-05-15T22:55:58.845Z,9.47
2018-05-15T22:58:24.893Z,6.40
2018-05-15T23:00:50.957Z,6.97
2018-05-15T23:03:17.019Z,6.43
2018-05-15T23:05:43.069Z,7.07
2018-05-15T23:08:09.106Z,6.20
2018-05-15T23:10:35.178Z,7.40
2018-05-15T23:13:01.257Z,6.17
2018-05-15T23:15:27.313Z,6.87
2018-05-15T23:17:53.364Z,6.30
2018-05-15T23:20:19.410Z,6.70
2018-05-15T23:22:45.568Z,6.47
2018-05-15T23:25:11.643Z,6.63
2018-05-15T23:27:37.682Z,7.50
2018-05-15T23:30:04.190Z,6.73
2018-05-15T23:32:30.988Z,6.93
2018-05-15T23:34:57.035Z,7.13
2018-05-15T23:37:23.103Z,6.73
2018-05-15T23:39:49.151Z,7.63
2018-05-15T23:42:15.313Z,7.70
2018-05-15T23:44:41.379Z,6.53
2018-05-15T23:47:08.483Z,6.47
2018-05-15T23:49:34.511Z,7.10
2018-05-15T23:52:00.780Z,7.00
2018-05-15T23:54:26.794Z,7.00
2018-05-15T23:56:52.845Z,7.17
2018-05-15T23:59:19.698Z,7.10
